Northpoint, Arkansas
Current Conditions -  °F | °C
As of 10:53 PM on Friday 28 Nov 2014 (Local Time) from KLIT Reporting Station
Few Clouds Few Clouds  
Wind Chill: 50°   Ceiling: Unl
Heat Index: 50°   Visibility: 10mi
Dew Point: 36°   Wind: 10mph
Humidity: 59%   Direction: 190°S
Pressure: 30.05"   Gusts: NA
Location:  34.8869°N, 92.5324°W
Report Text: KLIT 290453Z 19009KT 10SM FEW250 10/02 A3005 RMK AO2 SLP179 T01000022
Loading
Personal Weather Stations






























Interactive Weather Map New forecast layout! Learn more

10-Day Weather Forecast

Advertisements
Track Severe Weather on mobile